DCCHB EDWI-EDFE
Flight info
| Callsign | DCCHB |
|---|---|
| Flight time | 0h 45m |
| Altitude | 40000 |
| Route | MALYK Z529 HMM DCT DOMEG/N0423F390 DCT GMH Q603 TESGA DCT CHA |
| Aircraft | LJ35/M-SGHRWXY/SB1 |
Departure
| Time | 2026-04-24 19:19 |
|---|---|
| Airport | JadeWeser Airport (EDWI) |
Arrival
| Time | 2026-04-24 20:05 |
|---|---|
| Airport | Frankfurt-Egelsbach Airport (EDFE) |
| Time | Latitude | Longitude | Altitude | Speed | Heading |
|---|---|---|---|---|---|
| 2026-04-24 19:15 | 53.50679 | 8.05362 | 33 ft | 0 kts | 31° |
| 2026-04-24 19:18 | 53.50687 | 8.05370 | 32 ft | 5 kts | 33° |
| 2026-04-24 19:18 | 53.50739 | 8.05421 | 32 ft | 11 kts | 22° |
| 2026-04-24 19:18 | 53.50805 | 8.05496 | 32 ft | 13 kts | 50° |
| 2026-04-24 19:18 | 53.50815 | 8.05619 | 34 ft | 12 kts | 164° |
| 2026-04-24 19:19 | 53.50506 | 8.05421 | 37 ft | 100 kts | 201° |
| 2026-04-24 19:19 | 53.49586 | 8.04801 | 264 ft | 160 kts | 205° |
| 2026-04-24 19:19 | 53.48407 | 8.04056 | 696 ft | 209 kts | 202° |
| 2026-04-24 19:19 | 53.46836 | 8.03213 | 1358 ft | 260 kts | 200° |
| 2026-04-24 19:20 | 53.45021 | 8.02250 | 2219 ft | 266 kts | 201° |
| 2026-04-24 19:20 | 53.43310 | 8.01348 | 2756 ft | 268 kts | 201° |
| 2026-04-24 19:20 | 53.41573 | 8.00250 | 3280 ft | 264 kts | 206° |
| 2026-04-24 19:20 | 53.39875 | 7.99024 | 3753 ft | 273 kts | 206° |
| 2026-04-24 19:21 | 53.38083 | 7.97821 | 4212 ft | 277 kts | 204° |
| 2026-04-24 19:21 | 53.36282 | 7.96680 | 4588 ft | 275 kts | 204° |
| 2026-04-24 19:21 | 53.34474 | 7.95506 | 4964 ft | 283 kts | 205° |
| 2026-04-24 19:21 | 53.32668 | 7.94319 | 5331 ft | 280 kts | 205° |
| 2026-04-24 19:22 | 53.30841 | 7.93117 | 5712 ft | 282 kts | 205° |
| 2026-04-24 19:22 | 53.29000 | 7.91916 | 6096 ft | 293 kts | 205° |
| 2026-04-24 19:22 | 53.27097 | 7.90676 | 6540 ft | 296 kts | 204° |
| 2026-04-24 19:22 | 53.25044 | 7.89811 | 6960 ft | 316 kts | 189° |
| 2026-04-24 19:23 | 53.22828 | 7.89508 | 7923 ft | 319 kts | 185° |
| 2026-04-24 19:23 | 53.20644 | 7.89315 | 9803 ft | 310 kts | 185° |
| 2026-04-24 19:23 | 53.18482 | 7.89048 | 11335 ft | 314 kts | 187° |
| 2026-04-24 19:23 | 53.16275 | 7.88731 | 12676 ft | 324 kts | 187° |
| 2026-04-24 19:24 | 53.13993 | 7.88429 | 13954 ft | 337 kts | 186° |
| 2026-04-24 19:24 | 53.11555 | 7.88131 | 14630 ft | 365 kts | 186° |
| 2026-04-24 19:24 | 53.08925 | 7.87811 | 15157 ft | 394 kts | 186° |
| 2026-04-24 19:24 | 53.06093 | 7.87447 | 15456 ft | 423 kts | 186° |
| 2026-04-24 19:25 | 53.03084 | 7.87060 | 16123 ft | 433 kts | 186° |
| 2026-04-24 19:25 | 53.00081 | 7.86693 | 17157 ft | 436 kts | 186° |
| 2026-04-24 19:25 | 52.97034 | 7.86313 | 18020 ft | 442 kts | 187° |
| 2026-04-24 19:25 | 52.93950 | 7.85920 | 18830 ft | 447 kts | 187° |
| 2026-04-24 19:26 | 52.90843 | 7.85528 | 19576 ft | 450 kts | 187° |
| 2026-04-24 19:26 | 52.87711 | 7.85138 | 20314 ft | 453 kts | 187° |
| 2026-04-24 19:26 | 52.84552 | 7.84743 | 21026 ft | 457 kts | 187° |
| 2026-04-24 19:26 | 52.81372 | 7.84344 | 21703 ft | 460 kts | 187° |
| 2026-04-24 19:27 | 52.78166 | 7.83945 | 22354 ft | 463 kts | 187° |
| 2026-04-24 19:27 | 52.74995 | 7.83555 | 23560 ft | 451 kts | 187° |
| 2026-04-24 19:27 | 52.71908 | 7.83175 | 24773 ft | 438 kts | 188° |
| 2026-04-24 19:27 | 52.68932 | 7.82806 | 26167 ft | 420 kts | 189° |
| 2026-04-24 19:28 | 52.66074 | 7.82451 | 27569 ft | 405 kts | 189° |
| 2026-04-24 19:28 | 52.63311 | 7.82108 | 28879 ft | 394 kts | 190° |
| 2026-04-24 19:28 | 52.60572 | 7.81763 | 29693 ft | 395 kts | 191° |
| 2026-04-24 19:28 | 52.57824 | 7.81416 | 30262 ft | 400 kts | 191° |
| 2026-04-24 19:29 | 52.52031 | 7.80710 | 31639 ft | 397 kts | 191° |
| 2026-04-24 19:29 | 52.49525 | 7.80403 | 32208 ft | 397 kts | 191° |
| 2026-04-24 19:29 | 52.46785 | 7.80062 | 32826 ft | 396 kts | 191° |
| 2026-04-24 19:30 | 52.44037 | 7.79721 | 33440 ft | 395 kts | 191° |
| 2026-04-24 19:30 | 52.41298 | 7.79387 | 34035 ft | 395 kts | 191° |
| 2026-04-24 19:30 | 52.38560 | 7.79055 | 34566 ft | 394 kts | 191° |
| 2026-04-24 19:30 | 52.35824 | 7.78719 | 35035 ft | 394 kts | 190° |
| 2026-04-24 19:31 | 52.33096 | 7.78330 | 35497 ft | 393 kts | 191° |
| 2026-04-24 19:31 | 52.30409 | 7.77693 | 35951 ft | 389 kts | 197° |
| 2026-04-24 19:31 | 52.27757 | 7.76816 | 36405 ft | 388 kts | 198° |
| 2026-04-24 19:31 | 52.25112 | 7.75897 | 36868 ft | 388 kts | 197° |
| 2026-04-24 19:32 | 52.22459 | 7.75037 | 37318 ft | 389 kts | 196° |
| 2026-04-24 19:32 | 52.19583 | 7.74149 | 37796 ft | 389 kts | 196° |
| 2026-04-24 19:32 | 52.17145 | 7.73373 | 38189 ft | 388 kts | 197° |
| 2026-04-24 19:32 | 52.14498 | 7.72508 | 38615 ft | 388 kts | 197° |
| 2026-04-24 19:33 | 52.11848 | 7.71656 | 38991 ft | 388 kts | 196° |
| 2026-04-24 19:33 | 52.09225 | 7.70827 | 39289 ft | 389 kts | 196° |
| 2026-04-24 19:33 | 52.06571 | 7.69982 | 39582 ft | 389 kts | 196° |
| 2026-04-24 19:33 | 52.03906 | 7.69128 | 39873 ft | 390 kts | 196° |
| 2026-04-24 19:34 | 52.01242 | 7.68277 | 40166 ft | 391 kts | 196° |
| 2026-04-24 19:34 | 51.98575 | 7.67433 | 40450 ft | 391 kts | 195° |
| 2026-04-24 19:34 | 51.95901 | 7.66587 | 40728 ft | 392 kts | 195° |
| 2026-04-24 19:34 | 51.93380 | 7.65786 | 40982 ft | 392 kts | 195° |
| 2026-04-24 19:35 | 51.90697 | 7.64935 | 41247 ft | 393 kts | 195° |
| 2026-04-24 19:35 | 51.88010 | 7.64102 | 41507 ft | 394 kts | 195° |
| 2026-04-24 19:35 | 51.85320 | 7.63209 | 41764 ft | 394 kts | 196° |
| 2026-04-24 19:35 | 51.82626 | 7.62339 | 42015 ft | 395 kts | 195° |
| 2026-04-24 19:36 | 51.79929 | 7.61514 | 42263 ft | 396 kts | 194° |
| 2026-04-24 19:36 | 51.77220 | 7.60682 | 42513 ft | 396 kts | 195° |
| 2026-04-24 19:36 | 51.74515 | 7.59833 | 42758 ft | 397 kts | 194° |
| 2026-04-24 19:36 | 51.71748 | 7.59473 | 42912 ft | 405 kts | 181° |
| 2026-04-24 19:37 | 51.68924 | 7.60033 | 43038 ft | 412 kts | 170° |
| 2026-04-24 19:37 | 51.66166 | 7.61436 | 43162 ft | 418 kts | 163° |
| 2026-04-24 19:37 | 51.63415 | 7.63027 | 43190 ft | 423 kts | 163° |
| 2026-04-24 19:38 | 51.57790 | 7.66223 | 43198 ft | 434 kts | 163° |
| 2026-04-24 19:38 | 51.52015 | 7.69513 | 43194 ft | 445 kts | 163° |
| 2026-04-24 19:39 | 51.46116 | 7.72855 | 43196 ft | 453 kts | 163° |
| 2026-04-24 19:39 | 51.40120 | 7.76247 | 43193 ft | 460 kts | 163° |
| 2026-04-24 19:40 | 51.35900 | 7.78629 | 43192 ft | 462 kts | 163° |
| 2026-04-24 19:40 | 51.27771 | 7.83199 | 43195 ft | 464 kts | 163° |
| 2026-04-24 19:40 | 51.24731 | 7.84907 | 43019 ft | 462 kts | 163° |
| 2026-04-24 19:41 | 51.21680 | 7.86617 | 41921 ft | 470 kts | 163° |
| 2026-04-24 19:41 | 51.18610 | 7.88347 | 40809 ft | 465 kts | 162° |
| 2026-04-24 19:41 | 51.15710 | 7.90584 | 39761 ft | 464 kts | 153° |
| 2026-04-24 19:41 | 51.12992 | 7.93346 | 38796 ft | 460 kts | 151° |
| 2026-04-24 19:42 | 51.10315 | 7.96092 | 37680 ft | 455 kts | 152° |
| 2026-04-24 19:42 | 51.07650 | 7.98790 | 36644 ft | 451 kts | 152° |
| 2026-04-24 19:42 | 51.05055 | 8.01417 | 35687 ft | 447 kts | 152° |
| 2026-04-24 19:42 | 51.02447 | 8.04069 | 34770 ft | 442 kts | 152° |
| 2026-04-24 19:43 | 50.97353 | 8.09224 | 32904 ft | 437 kts | 153° |
| 2026-04-24 19:43 | 50.96536 | 8.10047 | 32605 ft | 437 kts | 153° |
| 2026-04-24 19:43 | 50.92232 | 8.14377 | 31130 ft | 454 kts | 152° |
| 2026-04-24 19:44 | 50.89526 | 8.17099 | 30309 ft | 465 kts | 152° |
| 2026-04-24 19:44 | 50.86819 | 8.19834 | 29458 ft | 456 kts | 152° |
| 2026-04-24 19:44 | 50.84187 | 8.22486 | 28769 ft | 444 kts | 152° |
| 2026-04-24 19:44 | 50.81589 | 8.25081 | 28077 ft | 438 kts | 152° |
| 2026-04-24 19:45 | 50.79016 | 8.27644 | 27374 ft | 439 kts | 152° |
| 2026-04-24 19:45 | 50.76425 | 8.30235 | 26653 ft | 440 kts | 151° |
| 2026-04-24 19:45 | 50.73837 | 8.32830 | 25950 ft | 438 kts | 151° |
| 2026-04-24 19:45 | 50.71278 | 8.35384 | 25278 ft | 433 kts | 151° |
| 2026-04-24 19:46 | 50.68762 | 8.37885 | 24626 ft | 421 kts | 151° |
| 2026-04-24 19:46 | 50.66325 | 8.40309 | 23987 ft | 409 kts | 151° |
| 2026-04-24 19:46 | 50.63931 | 8.42687 | 23290 ft | 405 kts | 151° |
| 2026-04-24 19:46 | 50.61553 | 8.45044 | 22566 ft | 403 kts | 151° |
| 2026-04-24 19:47 | 50.59177 | 8.47395 | 21787 ft | 404 kts | 151° |
| 2026-04-24 19:47 | 50.56795 | 8.49752 | 21042 ft | 404 kts | 150° |
| 2026-04-24 19:47 | 50.54415 | 8.52108 | 20323 ft | 404 kts | 150° |
| 2026-04-24 19:47 | 50.52051 | 8.54444 | 19551 ft | 397 kts | 150° |
| 2026-04-24 19:48 | 50.49744 | 8.56719 | 18648 ft | 386 kts | 150° |
| 2026-04-24 19:48 | 50.47497 | 8.58931 | 17674 ft | 377 kts | 150° |
| 2026-04-24 19:48 | 50.43096 | 8.63053 | 15836 ft | 359 kts | 154° |
| 2026-04-24 19:49 | 50.38843 | 8.66465 | 14764 ft | 329 kts | 154° |
| 2026-04-24 19:49 | 50.34712 | 8.69145 | 13518 ft | 318 kts | 175° |
| 2026-04-24 19:50 | 50.29464 | 8.64504 | 11200 ft | 299 kts | 248° |
| 2026-04-24 19:50 | 50.29063 | 8.61369 | 10486 ft | 293 kts | 273° |
| 2026-04-24 19:51 | 50.30759 | 8.55923 | 9184 ft | 278 kts | 316° |
| 2026-04-24 19:51 | 50.31870 | 8.53629 | 9154 ft | 254 kts | 301° |
| 2026-04-24 19:52 | 50.34699 | 8.50784 | 8984 ft | 256 kts | 356° |
| 2026-04-24 19:52 | 50.35866 | 8.50962 | 8780 ft | 256 kts | 15° |
| 2026-04-24 19:52 | 50.37415 | 8.52355 | 8479 ft | 264 kts | 43° |
| 2026-04-24 19:52 | 50.38415 | 8.54832 | 8213 ft | 277 kts | 67° |
| 2026-04-24 19:53 | 50.38997 | 8.57743 | 7923 ft | 285 kts | 72° |
| 2026-04-24 19:53 | 50.39497 | 8.60773 | 7537 ft | 289 kts | 74° |
| 2026-04-24 19:53 | 50.40487 | 8.67087 | 6614 ft | 300 kts | 74° |
| 2026-04-24 19:54 | 50.40975 | 8.70265 | 6115 ft | 300 kts | 75° |
| 2026-04-24 19:54 | 50.41461 | 8.73438 | 5615 ft | 295 kts | 75° |
| 2026-04-24 19:54 | 50.41538 | 8.76608 | 5086 ft | 301 kts | 99° |
| 2026-04-24 19:54 | 50.40707 | 8.79591 | 4858 ft | 300 kts | 125° |
| 2026-04-24 19:55 | 50.39727 | 8.81139 | 4744 ft | 293 kts | 142° |
| 2026-04-24 19:55 | 50.37292 | 8.82653 | 4406 ft | 279 kts | 169° |
| 2026-04-24 19:55 | 50.35433 | 8.83093 | 4205 ft | 261 kts | 173° |
| 2026-04-24 19:55 | 50.33684 | 8.83436 | 3954 ft | 248 kts | 172° |
| 2026-04-24 19:56 | 50.32056 | 8.84124 | 3663 ft | 239 kts | 158° |
| 2026-04-24 19:56 | 50.30574 | 8.85325 | 3369 ft | 245 kts | 147° |
| 2026-04-24 19:56 | 50.29088 | 8.86810 | 3113 ft | 259 kts | 146° |
| 2026-04-24 19:56 | 50.27586 | 8.88392 | 3020 ft | 259 kts | 142° |
| 2026-04-24 19:57 | 50.26167 | 8.90114 | 3017 ft | 260 kts | 139° |
| 2026-04-24 19:57 | 50.24738 | 8.91921 | 3018 ft | 267 kts | 140° |
| 2026-04-24 19:57 | 50.23283 | 8.93752 | 3020 ft | 270 kts | 140° |
| 2026-04-24 19:57 | 50.21850 | 8.95557 | 3001 ft | 260 kts | 141° |
| 2026-04-24 19:58 | 50.20334 | 8.97088 | 3000 ft | 260 kts | 149° |
| 2026-04-24 19:58 | 50.18744 | 8.98417 | 3002 ft | 258 kts | 151° |
| 2026-04-24 19:58 | 50.17114 | 8.99647 | 2998 ft | 262 kts | 160° |
| 2026-04-24 19:58 | 50.15352 | 9.00315 | 2997 ft | 266 kts | 169° |
| 2026-04-24 19:59 | 50.13522 | 9.00778 | 3003 ft | 264 kts | 175° |
| 2026-04-24 19:59 | 50.11715 | 9.00919 | 3003 ft | 256 kts | 176° |
| 2026-04-24 19:59 | 50.09921 | 9.01163 | 3002 ft | 265 kts | 175° |
| 2026-04-24 19:59 | 50.08044 | 9.01436 | 3006 ft | 274 kts | 175° |
| 2026-04-24 20:00 | 50.06141 | 9.01722 | 3012 ft | 268 kts | 175° |
| 2026-04-24 20:00 | 50.04391 | 9.01394 | 2988 ft | 242 kts | 204° |
| 2026-04-24 20:00 | 50.03130 | 8.99881 | 2997 ft | 228 kts | 234° |
| 2026-04-24 20:00 | 50.02220 | 8.97794 | 2998 ft | 239 kts | 240° |
| 2026-04-24 20:01 | 50.01427 | 8.95456 | 2998 ft | 250 kts | 247° |
| 2026-04-24 20:01 | 50.00756 | 8.92967 | 3012 ft | 247 kts | 251° |
| 2026-04-24 20:01 | 50.00151 | 8.90552 | 3010 ft | 233 kts | 250° |
| 2026-04-24 20:01 | 49.99548 | 8.88268 | 2946 ft | 228 kts | 250° |
| 2026-04-24 20:02 | 49.98925 | 8.85955 | 2792 ft | 235 kts | 250° |
| 2026-04-24 20:02 | 49.98303 | 8.83626 | 2638 ft | 233 kts | 250° |
| 2026-04-24 20:02 | 49.97678 | 8.81292 | 2502 ft | 233 kts | 250° |
| 2026-04-24 20:02 | 49.97057 | 8.78970 | 2239 ft | 232 kts | 250° |
| 2026-04-24 20:03 | 49.96654 | 8.76595 | 1864 ft | 225 kts | 269° |
| 2026-04-24 20:03 | 49.96702 | 8.74217 | 1601 ft | 219 kts | 270° |
| 2026-04-24 20:03 | 49.96481 | 8.71906 | 1308 ft | 203 kts | 262° |
| 2026-04-24 20:03 | 49.96359 | 8.69939 | 1222 ft | 164 kts | 270° |
| 2026-04-24 20:04 | 49.96288 | 8.68296 | 1080 ft | 152 kts | 269° |
| 2026-04-24 20:04 | 49.96209 | 8.66665 | 752 ft | 143 kts | 269° |
| 2026-04-24 20:04 | 49.96132 | 8.65146 | 489 ft | 143 kts | 270° |
| 2026-04-24 20:04 | 49.96067 | 8.63774 | 387 ft | 76 kts | 265° |
| 2026-04-24 20:05 | 49.96050 | 8.63414 | 385 ft | 20 kts | 261° |
| 2026-04-24 20:05 | 49.96044 | 8.63266 | 385 ft | 11 kts | 262° |
| 2026-04-24 20:05 | 49.96062 | 8.63181 | 386 ft | 7 kts | 359° |
| 2026-04-24 20:05 | 49.96103 | 8.63230 | 387 ft | 10 kts | 42° |
| 2026-04-24 20:06 | 49.96128 | 8.63363 | 387 ft | 16 kts | 85° |
| 2026-04-24 20:06 | 49.96137 | 8.63547 | 387 ft | 17 kts | 85° |
| 2026-04-24 20:06 | 49.96145 | 8.63723 | 387 ft | 16 kts | 86° |
| 2026-04-24 20:06 | 49.96153 | 8.63887 | 387 ft | 15 kts | 87° |
| 2026-04-24 20:07 | 49.96159 | 8.64000 | 387 ft | 17 kts | 83° |
| 2026-04-24 20:07 | 49.96186 | 8.64103 | 387 ft | 7 kts | 313° |
| 2026-04-24 20:07 | 49.96187 | 8.64071 | 387 ft | 0 kts | 272° |